Time;durP1;ratioP1;P1;durP2;ratioP2;P2;SDS_P1;SDS_P2;PMS_P1;PMS_P2;Temp;Humidity;BMP_temperature;BMP_pressure;BME280_temperature;BME280_humidity;BME280_pressure;Samples;Min_cycle;Max_cycle;Signal;HPM_P1;HPM_P2
2022/06/21 00:00:05;;;;;;;;;;;;;;;27.14;59.20;99150.88;2067428;28;20380;-54
2022/06/21 00:01:07;;;;;;;;;;;;;;;27.13;59.02;99149.34;2066841;28;19952;-52
2022/06/21 00:02:10;;;;;;;;;;;;;;;27.13;58.70;99154.91;2066377;28;19909;-51
2022/06/21 00:03:14;;;;;;;;;;;;;;;27.12;58.44;99161.75;2067472;28;19916;-50
2022/06/21 00:04:14;;;;;;;;;;;;;;;27.12;58.84;99159.72;2066537;28;20436;-52
2022/06/21 00:05:20;;;;;;;;;;;;;;;27.13;59.18;99154.91;2064172;28;19913;-50
2022/06/21 00:06:24;;;;;;;;;;;;;;;27.12;59.25;99158.97;2066392;28;19948;-49
2022/06/21 00:07:26;;;;;;;;;;;;;;;27.13;59.57;99157.69;2067391;28;20406;-51
2022/06/21 00:08:28;;;;;;;;;;;;;;;27.12;59.14;99161.75;2066172;28;19913;-50
2022/06/21 00:09:29;;;;;;;;;;;;;;;27.13;59.20;99168.81;2067356;28;19963;-48
2022/06/21 00:10:34;;;;;;;;;;;;;;;27.13;59.05;99168.81;2064848;28;20205;-51
2022/06/21 00:11:34;;;;;;;;;;;;;;;27.12;59.37;99168.06;2061153;28;19925;-52
2022/06/21 00:12:35;;;;;;;;;;;;;;;27.12;59.48;99154.16;2066487;28;19927;-50
2022/06/21 00:13:35;;;;;;;;;;;;;;;27.12;59.55;99150.63;2066673;28;19916;-51
2022/06/21 00:14:35;;;;;;;;;;;;;;;27.12;59.74;99142.28;2069523;28;20342;-51
2022/06/21 00:15:36;;;;;;;;;;;;;;;27.10;59.22;99139.22;2067223;28;19916;-51
2022/06/21 00:16:37;;;;;;;;;;;;;;;27.10;58.70;99139.22;2066818;28;19905;-49
2022/06/21 00:17:38;;;;;;;;;;;;;;;27.10;58.98;99144.78;2069266;28;19905;-52
2022/06/21 00:18:40;;;;;;;;;;;;;;;27.10;59.02;99153.88;2065423;28;19916;-52
2022/06/21 00:19:43;;;;;;;;;;;;;;;27.09;59.35;99141.22;2068553;28;20327;-51
2022/06/21 00:20:43;;;;;;;;;;;;;;;27.09;59.67;99129.34;2068858;28;20204;-50
2022/06/21 00:21:45;;;;;;;;;;;;;;;27.09;59.46;99132.91;2066440;28;19909;-50
2022/06/21 00:22:45;;;;;;;;;;;;;;;27.08;60.07;99134.16;2069013;28;19960;-50
2022/06/21 00:23:47;;;;;;;;;;;;;;;27.09;59.97;99140.47;2064548;28;19920;-52
2022/06/21 00:24:47;;;;;;;;;;;;;;;27.08;59.68;99153.59;2067520;28;19940;-51
2022/06/21 00:25:47;;;;;;;;;;;;;;;27.09;59.66;99159.91;2068200;28;19905;-51
2022/06/21 00:26:48;;;;;;;;;;;;;;;27.09;59.99;99154.38;2067606;28;19909;-51
2022/06/21 00:27:48;;;;;;;;;;;;;;;27.08;60.20;99150.81;2067683;28;19916;-49
2022/06/21 00:28:49;;;;;;;;;;;;;;;27.08;60.32;99153.59;2066720;28;19955;-49
2022/06/21 00:29:50;;;;;;;;;;;;;;;27.09;59.59;99162.69;2067598;28;19920;-51
2022/06/21 00:30:51;;;;;;;;;;;;;;;27.09;59.91;99159.91;2070318;28;19940;-51
2022/06/21 00:31:53;;;;;;;;;;;;;;;27.07;60.24;99165.97;2066409;28;19931;-52
2022/06/21 00:32:54;;;;;;;;;;;;;;;27.07;60.15;99171.53;2069251;28;19986;-52
2022/06/21 00:33:55;;;;;;;;;;;;;;;27.06;60.16;99172.78;2067519;28;20349;-52
2022/06/21 00:34:56;;;;;;;;;;;;;;;27.07;60.14;99154.09;2067889;28;19948;-51
2022/06/21 00:35:59;;;;;;;;;;;;;;;27.05;59.63;99137.91;2063193;28;19962;-52
2022/06/21 00:37:00;;;;;;;;;;;;;;;27.04;59.22;99146.72;2063407;28;20396;-52
2022/06/21 00:38:00;;;;;;;;;;;;;;;27.05;58.98;99171.25;2068330;28;19913;-49
2022/06/21 00:39:01;;;;;;;;;;;;;;;27.05;59.37;99179.59;2064345;28;19940;-52
2022/06/21 00:40:05;;;;;;;;;;;;;;;27.05;59.57;99178.84;2067287;28;19921;-52
2022/06/21 00:41:07;;;;;;;;;;;;;;;27.04;59.79;99168.97;2066847;28;19913;-49
2022/06/21 00:42:19;;;;;;;;;;;;;;;27.04;59.78;99166.19;2067315;28;20337;-52
2022/06/21 00:43:22;;;;;;;;;;;;;;;27.04;59.51;99166.19;2063006;28;20374;-50
2022/06/21 00:44:27;;;;;;;;;;;;;;;27.04;60.08;99161.41;2067733;28;20000;-50
2022/06/21 00:45:38;;;;;;;;;;;;;;;27.03;59.62;99165.41;2067307;28;20320;-51
2022/06/21 00:46:41;;;;;;;;;;;;;;;27.03;59.89;99176.53;2065533;28;19958;-49
2022/06/21 00:47:44;;;;;;;;;;;;;;;27.03;59.84;99184.09;2068412;28;20629;-51
2022/06/21 00:48:44;;;;;;;;;;;;;;;27.03;59.31;99186.88;2064234;28;19909;-50
2022/06/21 00:49:48;;;;;;;;;;;;;;;27.02;59.57;99193.72;2067108;28;20409;-51
2022/06/21 00:50:51;;;;;;;;;;;;;;;27.02;59.81;99190.94;2068619;28;20005;-52
2022/06/21 00:51:57;;;;;;;;;;;;;;;27.01;59.61;99201.28;2065342;28;20222;-50
2022/06/21 00:53:16;;;;;;;;;;;;;;;27.01;59.66;99192.19;2068254;28;20504;-51
2022/06/21 00:54:25;;;;;;;;;;;;;;;27.01;60.26;99200.53;2067514;28;19943;-50
2022/06/21 00:55:32;;;;;;;;;;;;;;;27.01;60.36;99208.84;2066855;28;20132;-49
2022/06/21 00:56:36;;;;;;;;;;;;;;;27.01;60.03;99212.41;2069432;28;20565;-51
2022/06/21 00:57:42;;;;;;;;;;;;;;;27.02;60.12;99218.72;2071153;28;19924;-51
2022/06/21 00:58:42;;;;;;;;;;;;;;;27.01;60.05;99200.53;2067989;28;19999;-52
2022/06/21 00:59:44;;;;;;;;;;;;;;;27.00;60.20;99193.44;2069592;28;19920;-52
2022/06/21 01:00:52;;;;;;;;;;;;;;;27.01;60.29;99194.97;2069514;28;20015;-50
2022/06/21 01:01:54;;;;;;;;;;;;;;;27.01;60.40;99194.97;2068828;28;19920;-52
2022/06/21 01:02:56;;;;;;;;;;;;;;;27.01;60.61;99194.97;2069498;28;19984;-52
2022/06/21 01:04:10;;;;;;;;;;;;;;;27.00;60.39;99193.44;2069447;28;19940;-49
2022/06/21 01:05:10;;;;;;;;;;;;;;;27.00;60.32;99193.44;2068901;28;20429;-50
2022/06/21 01:06:22;;;;;;;;;;;;;;;26.99;60.37;99183.56;2069898;28;19909;-50
2022/06/21 01:07:23;;;;;;;;;;;;;;;26.99;60.29;99180.78;2068998;28;19905;-52
2022/06/21 01:08:27;;;;;;;;;;;;;;;26.99;60.34;99180.78;2067225;28;20351;-49
2022/06/21 01:09:36;;;;;;;;;;;;;;;26.99;60.59;99184.34;2070524;28;20039;-51
2022/06/21 01:10:36;;;;;;;;;;;;;;;26.98;60.52;99184.81;2069110;28;19992;-50
2022/06/21 01:11:42;;;;;;;;;;;;;;;26.99;60.57;99183.56;2069235;28;20347;-49
2022/06/21 01:12:48;;;;;;;;;;;;;;;26.99;60.59;99189.13;2068896;28;19952;-53
2022/06/21 01:13:50;;;;;;;;;;;;;;;26.98;60.36;99187.59;2066277;28;19912;-52
2022/06/21 01:14:55;;;;;;;;;;;;;;;26.97;60.26;99195.16;2067921;28;19909;-52
2022/06/21 01:15:57;;;;;;;;;;;;;;;26.97;60.29;99200.72;2068394;28;19928;-52
2022/06/21 01:16:57;;;;;;;;;;;;;;;26.98;60.36;99201.50;2065387;28;20476;-51
2022/06/21 01:18:00;;;;;;;;;;;;;;;26.98;60.52;99195.94;2067604;28;19912;-53
2022/06/21 01:19:01;;;;;;;;;;;;;;;26.96;60.56;99193.66;2066898;28;19912;-51
2022/06/21 01:20:04;;;;;;;;;;;;;;;26.97;60.59;99189.59;2064886;28;19905;-50
2022/06/21 01:21:04;;;;;;;;;;;;;;;26.97;60.23;99186.06;2070839;28;19919;-51
2022/06/21 01:22:14;;;;;;;;;;;;;;;26.97;60.40;99191.63;2072444;28;20354;-51
2022/06/21 01:23:29;;;;;;;;;;;;;;;26.95;60.42;99186.56;2071205;28;19909;-50
2022/06/21 01:24:46;;;;;;;;;;;;;;;26.96;60.83;99188.09;2065108;28;19905;-51
2022/06/21 01:26:01;;;;;;;;;;;;;;;26.95;60.67;99191.34;2069650;28;19913;-50
2022/06/21 01:27:03;;;;;;;;;;;;;;;26.94;60.49;99196.16;2066645;28;19912;-51
2022/06/21 01:28:04;;;;;;;;;;;;;;;26.96;60.82;99198.44;2066810;28;22610;-49
2022/06/21 01:29:06;;;;;;;;;;;;;;;26.95;60.14;99208.03;2068965;28;20050;-49
2022/06/21 01:30:08;;;;;;;;;;;;;;;26.95;60.29;99205.25;2066018;28;20335;-51
2022/06/21 01:31:09;;;;;;;;;;;;;;;26.95;60.63;99205.25;2071496;28;19952;-51
2022/06/21 01:32:09;;;;;;;;;;;;;;;26.94;60.52;99198.16;2067198;28;19968;-52
2022/06/21 01:33:14;;;;;;;;;;;;;;;26.95;60.78;99216.38;2069930;28;19988;-51
2022/06/21 01:34:19;;;;;;;;;;;;;;;26.93;60.48;99211.28;2062303;28;20236;-52
2022/06/21 01:35:29;;;;;;;;;;;;;;;26.94;60.53;99215.59;2068043;28;19917;-52
2022/06/21 01:36:32;;;;;;;;;;;;;;;26.93;60.85;99204.97;2067839;28;19909;-49
2022/06/21 01:37:32;;;;;;;;;;;;;;;26.93;61.00;99205.72;2070046;28;19956;-52
2022/06/21 01:38:37;;;;;;;;;;;;;;;26.92;61.08;99203.44;2067826;28;19917;-49
2022/06/21 01:39:56;;;;;;;;;;;;;;;26.93;61.03;99204.97;2066480;28;19913;-50
2022/06/21 01:41:02;;;;;;;;;;;;;;;26.93;61.02;99207.75;2062791;28;20046;-52
2022/06/21 01:42:21;;;;;;;;;;;;;;;26.91;61.02;99207.50;2066494;28;19915;-51
2022/06/21 01:43:24;;;;;;;;;;;;;;;26.91;60.55;99208.25;2068003;28;20262;-49
2022/06/21 01:44:26;;;;;;;;;;;;;;;26.91;60.53;99201.94;2067400;28;19908;-52
2022/06/21 01:45:29;;;;;;;;;;;;;;;26.91;60.71;99207.50;2066979;28;20132;-50
2022/06/21 01:46:30;;;;;;;;;;;;;;;26.91;60.86;99196.38;2069299;28;19916;-52
2022/06/21 01:47:35;;;;;;;;;;;;;;;26.91;60.79;99202.69;2069786;28;19936;-51
2022/06/21 01:48:39;;;;;;;;;;;;;;;26.89;60.77;99200.41;2069585;28;20270;-52
2022/06/21 01:49:43;;;;;;;;;;;;;;;26.90;60.91;99201.16;2068856;28;20096;-48
2022/06/21 01:50:46;;;;;;;;;;;;;;;26.89;60.88;99197.63;2069135;28;19913;-51
2022/06/21 01:51:55;;;;;;;;;;;;;;;26.89;61.10;99189.28;2070785;28;20015;-51
2022/06/21 01:52:55;;;;;;;;;;;;;;;26.88;61.35;99193.31;2069056;28;19913;-51
2022/06/21 01:53:57;;;;;;;;;;;;;;;26.88;61.55;99193.31;2069011;28;19939;-51
2022/06/21 01:55:06;;;;;;;;;;;;;;;26.88;61.68;99196.09;2066666;28;20098;-52
2022/06/21 01:56:15;;;;;;;;;;;;;;;26.88;61.89;99196.09;2068788;28;19911;-52
2022/06/21 01:57:15;;;;;;;;;;;;;;;26.88;61.83;99198.88;2065600;28;19924;-52
2022/06/21 01:58:18;;;;;;;;;;;;;;;26.86;61.73;99201.31;2069049;28;19913;-51
2022/06/21 01:59:30;;;;;;;;;;;;;;;26.86;61.78;99198.53;2064146;28;20853;-51
2022/06/21 02:00:32;;;;;;;;;;;;;;;26.86;61.90;99198.53;2062757;28;20346;-52
2022/06/21 02:01:47;;;;;;;;;;;;;;;26.86;61.69;99201.31;2066918;28;19917;-50
2022/06/21 02:02:50;;;;;;;;;;;;;;;26.86;61.85;99212.44;2065576;28;20047;-51
2022/06/21 02:03:53;;;;;;;;;;;;;;;26.86;61.73;99206.16;2066919;28;19909;-49
2022/06/21 02:04:56;;;;;;;;;;;;;;;26.85;61.83;99210.94;2061600;28;19917;-52
2022/06/21 02:05:59;;;;;;;;;;;;;;;26.85;61.68;99210.16;2068464;28;19917;-51
2022/06/21 02:07:02;;;;;;;;;;;;;;;26.84;61.55;99209.41;2060232;28;19936;-51
2022/06/21 02:08:07;;;;;;;;;;;;;;;26.84;61.23;99217.75;2069452;28;19909;-52
2022/06/21 02:09:14;;;;;;;;;;;;;;;26.84;61.11;99209.41;2062916;28;19924;-50
2022/06/21 02:10:18;;;;;;;;;;;;;;;26.85;60.30;99210.94;2063301;28;19934;-49
2022/06/21 02:11:25;;;;;;;;;;;;;;;26.85;60.51;99204.63;2064934;28;20023;-51
2022/06/21 02:12:27;;;;;;;;;;;;;;;26.84;60.76;99198.28;2064786;28;20367;-50
2022/06/21 02:13:30;;;;;;;;;;;;;;;26.84;60.77;99187.19;2067935;28;19960;-50
2022/06/21 02:14:34;;;;;;;;;;;;;;;26.85;60.15;99185.16;2062002;28;20347;-52
2022/06/21 02:15:37;;;;;;;;;;;;;;;26.84;60.62;99180.84;2067880;28;19971;-51
2022/06/21 02:16:40;;;;;;;;;;;;;;;26.84;60.82;99187.19;2073200;28;19940;-51
2022/06/21 02:17:42;;;;;;;;;;;;;;;26.83;60.90;99182.09;2075268;28;19909;-51
2022/06/21 02:18:52;;;;;;;;;;;;;;;26.83;61.05;99185.66;2066952;28;19917;-48
2022/06/21 02:20:07;;;;;;;;;;;;;;;26.82;61.02;99192.44;2065245;28;19927;-48
2022/06/21 02:21:12;;;;;;;;;;;;;;;26.82;61.47;99197.22;2070042;28;20462;-49
2022/06/21 02:22:18;;;;;;;;;;;;;;;26.82;61.45;99194.47;2063125;28;20365;-51
2022/06/21 02:23:20;;;;;;;;;;;;;;;26.80;61.60;99200.53;2067002;28;19924;-49
2022/06/21 02:24:23;;;;;;;;;;;;;;;26.81;61.50;99210.34;2066762;28;20696;-51
2022/06/21 02:25:24;;;;;;;;;;;;;;;26.81;61.77;99207.59;2073371;28;20367;-50
2022/06/21 02:26:28;;;;;;;;;;;;;;;26.81;61.62;99204.81;2064469;28;20477;-50
2022/06/21 02:27:30;;;;;;;;;;;;;;;26.80;61.64;99197.75;2069118;28;20366;-52
2022/06/21 02:28:31;;;;;;;;;;;;;;;26.80;61.59;99199.75;2063025;28;20251;-51
2022/06/21 02:29:31;;;;;;;;;;;;;;;26.79;61.71;99201.00;2069927;28;19913;-51
2022/06/21 02:30:32;;;;;;;;;;;;;;;26.78;61.83;99200.22;2066752;28;20012;-50
2022/06/21 02:31:32;;;;;;;;;;;;;;;26.79;61.92;99201.75;2068147;28;19956;-50
2022/06/21 02:32:37;;;;;;;;;;;;;;;26.80;62.04;99208.09;2066066;28;19980;-49
2022/06/21 02:33:38;;;;;;;;;;;;;;;26.79;62.06;99198.22;2065883;28;21180;-50
2022/06/21 02:34:40;;;;;;;;;;;;;;;26.79;62.09;99199.00;2062255;28;20455;-49
2022/06/21 02:35:46;;;;;;;;;;;;;;;26.79;61.97;99199.00;2066352;28;19958;-52
2022/06/21 02:36:49;;;;;;;;;;;;;;;26.79;62.29;99207.31;2061756;28;20048;-53
2022/06/21 02:37:51;;;;;;;;;;;;;;;26.78;62.23;99202.25;2067868;28;20165;-51
2022/06/21 02:38:56;;;;;;;;;;;;;;;26.77;62.35;99201.47;2061959;28;20341;-50
2022/06/21 02:39:58;;;;;;;;;;;;;;;26.77;62.20;99207.03;2066600;28;19913;-52
2022/06/21 02:41:19;;;;;;;;;;;;;;;26.78;62.18;99207.81;2067505;28;19920;-51
2022/06/21 02:42:22;;;;;;;;;;;;;;;26.76;62.19;99202.72;2068008;28;20359;-52
2022/06/21 02:43:29;;;;;;;;;;;;;;;26.76;62.33;99205.50;2066979;28;19913;-49
2022/06/21 02:44:34;;;;;;;;;;;;;;;26.77;62.44;99209.81;2062374;28;19923;-51
2022/06/21 02:45:47;;;;;;;;;;;;;;;26.76;62.70;99219.38;2068858;28;19911;-48
2022/06/21 02:46:50;;;;;;;;;;;;;;;26.76;61.77;99213.06;2068205;28;19924;-51
2022/06/21 02:47:52;;;;;;;;;;;;;;;26.75;61.64;99215.09;2065207;28;19905;-50
2022/06/21 02:48:55;;;;;;;;;;;;;;;26.75;61.66;99208.78;2067526;28;19992;-51
2022/06/21 02:49:59;;;;;;;;;;;;;;;26.75;61.80;99206.78;2065689;28;20082;-52
2022/06/21 02:51:09;;;;;;;;;;;;;;;26.75;61.36;99203.22;2067304;28;19909;-50
2022/06/21 02:52:16;;;;;;;;;;;;;;;26.75;61.79;99209.56;2061815;28;19968;-51
2022/06/21 02:53:21;;;;;;;;;;;;;;;26.74;61.31;99210.03;2064309;28;20173;-52
2022/06/21 02:54:49;;;;;;;;;;;;;;;26.74;61.38;99210.78;2067339;28;19920;-51
2022/06/21 02:56:02;;;;;;;;;;;;;;;26.73;61.84;99205.72;2062108;28;20005;-52
2022/06/21 02:57:16;;;;;;;;;;;;;;;26.72;61.39;99202.19;2066448;28;19908;-52
2022/06/21 02:58:19;;;;;;;;;;;;;;;26.72;61.51;99202.19;2065384;28;19944;-51
2022/06/21 02:59:19;;;;;;;;;;;;;;;26.72;61.36;99199.41;2064865;28;19917;-51
2022/06/21 03:00:20;;;;;;;;;;;;;;;26.73;61.77;99198.16;2065675;28;19936;-52
2022/06/21 03:01:24;;;;;;;;;;;;;;;26.72;61.72;99202.19;2062825;28;19920;-50
2022/06/21 03:02:26;;;;;;;;;;;;;;;26.72;61.69;99196.63;2068323;28;19923;-51
2022/06/21 03:03:29;;;;;;;;;;;;;;;26.73;62.19;99200.94;2061855;28;20356;-51
2022/06/21 03:04:36;;;;;;;;;;;;;;;26.72;62.26;99204.94;2069875;28;20395;-52
2022/06/21 03:05:36;;;;;;;;;;;;;;;26.72;61.68;99202.19;2066094;28;19917;-51
2022/06/21 03:06:36;;;;;;;;;;;;;;;26.72;61.73;99198.63;2063908;28;20308;-51
2022/06/21 03:07:38;;;;;;;;;;;;;;;26.72;61.78;99201.41;2066546;28;19959;-51
2022/06/21 03:08:49;;;;;;;;;;;;;;;26.70;62.19;99204.66;2065227;28;19912;-51
2022/06/21 03:09:53;;;;;;;;;;;;;;;26.70;61.53;99204.66;2065545;28;19912;-52
2022/06/21 03:10:54;;;;;;;;;;;;;;;26.69;61.59;99200.38;2064891;28;19924;-50
2022/06/21 03:11:57;;;;;;;;;;;;;;;26.67;61.71;99197.31;2068140;28;19928;-51
2022/06/21 03:13:03;;;;;;;;;;;;;;;26.68;61.80;99201.63;2060460;28;20042;-51
2022/06/21 03:14:05;;;;;;;;;;;;;;;26.68;61.52;99196.06;2066816;28;19919;-51
2022/06/21 03:15:08;;;;;;;;;;;;;;;26.67;61.21;99197.31;2065372;28;20007;-50
2022/06/21 03:16:12;;;;;;;;;;;;;;;26.67;61.60;99200.09;2064308;28;19916;-52
2022/06/21 03:17:14;;;;;;;;;;;;;;;26.68;62.01;99211.97;2066450;28;19917;-49
2022/06/21 03:18:17;;;;;;;;;;;;;;;26.67;62.15;99213.97;2063642;28;20191;-52
2022/06/21 03:19:25;;;;;;;;;;;;;;;26.68;62.13;99215.50;2066800;28;19908;-51
2022/06/21 03:20:25;;;;;;;;;;;;;;;26.67;61.88;99216.75;2062070;28;20856;-52
2022/06/21 03:21:27;;;;;;;;;;;;;;;26.68;61.57;99209.97;2067328;28;19905;-49
2022/06/21 03:22:31;;;;;;;;;;;;;;;26.67;62.28;99202.88;2059538;28;19948;-49
2022/06/21 03:23:32;;;;;;;;;;;;;;;26.67;61.93;99202.88;2067474;28;20327;-51
2022/06/21 03:24:32;;;;;;;;;;;;;;;26.67;61.80;99202.88;2062002;28;20327;-51
2022/06/21 03:25:40;;;;;;;;;;;;;;;26.66;62.08;99195.78;2064917;28;19923;-50
2022/06/21 03:26:41;;;;;;;;;;;;;;;26.66;61.94;99195.03;2063953;28;20528;-51
2022/06/21 03:27:50;;;;;;;;;;;;;;;26.65;61.93;99196.28;2064568;28;19913;-51
2022/06/21 03:28:51;;;;;;;;;;;;;;;26.64;62.31;99201.09;2067880;28;19920;-48
2022/06/21 03:29:51;;;;;;;;;;;;;;;26.64;62.20;99189.97;2065436;28;19929;-49
2022/06/21 03:31:05;;;;;;;;;;;;;;;26.65;62.02;99185.19;2068024;28;19920;-51
2022/06/21 03:32:05;;;;;;;;;;;;;;;26.63;61.93;99191.22;2061648;28;20327;-50
2022/06/21 03:33:05;;;;;;;;;;;;;;;26.63;62.26;99196.00;2068726;28;19913;-50
2022/06/21 03:34:08;;;;;;;;;;;;;;;26.64;62.43;99198.31;2061004;28;20493;-51
2022/06/21 03:35:09;;;;;;;;;;;;;;;26.64;62.41;99189.19;2066116;28;20336;-50
2022/06/21 03:36:13;;;;;;;;;;;;;;;26.63;62.60;99188.44;2066652;28;19913;-51
2022/06/21 03:37:13;;;;;;;;;;;;;;;26.64;62.56;99195.53;2061707;28;19942;-51
2022/06/21 03:38:13;;;;;;;;;;;;;;;26.63;62.43;99198.78;2068037;28;19913;-52
2022/06/21 03:39:18;;;;;;;;;;;;;;;26.63;62.24;99194.00;2066985;28;19909;-52
2022/06/21 03:41:43;;;;;;;;;;;;;;;26.65;60.99;99196.28;2069611;28;19992;-49
2022/06/21 03:42:48;;;;;;;;;;;;;;;26.64;61.32;99189.97;2067892;28;19913;-49
2022/06/21 03:43:51;;;;;;;;;;;;;;;26.63;61.03;99194.00;2067781;28;19928;-53
2022/06/21 03:45:04;;;;;;;;;;;;;;;26.63;61.22;99194.00;2068575;28;19952;-52
2022/06/21 03:46:07;;;;;;;;;;;;;;;26.63;61.52;99193.22;2074221;28;20171;-51
2022/06/21 03:47:07;;;;;;;;;;;;;;;26.62;61.75;99188.91;2075783;28;19946;-52
2022/06/21 03:48:09;;;;;;;;;;;;;;;26.61;62.06;99190.94;2064329;28;19955;-52
2022/06/21 03:49:20;;;;;;;;;;;;;;;26.61;62.08;99187.38;2066448;28;19909;-49
2022/06/21 03:50:21;;;;;;;;;;;;;;;26.59;61.83;99187.88;2063620;28;19929;-50
2022/06/21 03:51:26;;;;;;;;;;;;;;;26.58;61.84;99186.34;2068508;28;19917;-50
2022/06/21 03:52:43;;;;;;;;;;;;;;;26.60;61.91;99186.63;2067320;28;20405;-49
2022/06/21 03:53:50;;;;;;;;;;;;;;;26.60;62.20;99191.41;2064847;28;19908;-50
2022/06/21 03:54:51;;;;;;;;;;;;;;;26.58;61.79;99199.47;2061732;28;19960;-51
2022/06/21 03:55:52;;;;;;;;;;;;;;;26.57;61.79;99193.16;2067908;28;19948;-52
2022/06/21 03:56:55;;;;;;;;;;;;;;;26.57;61.51;99184.06;2067837;28;19913;-52
2022/06/21 03:58:01;;;;;;;;;;;;;;;26.55;61.21;99187.31;2061822;28;19917;-49
2022/06/21 03:59:10;;;;;;;;;;;;;;;26.55;61.89;99184.53;2062449;28;19913;-51
2022/06/21 04:00:12;;;;;;;;;;;;;;;26.55;61.60;99181.75;2063317;28;20315;-50
2022/06/21 04:01:16;;;;;;;;;;;;;;;26.55;61.69;99192.09;2069414;28;20284;-51
2022/06/21 04:02:37;;;;;;;;;;;;;;;26.55;61.37;99198.41;2062203;28;20015;-52
2022/06/21 04:03:46;;;;;;;;;;;;;;;26.54;61.79;99185.81;2066401;28;19959;-51
2022/06/21 04:04:55;;;;;;;;;;;;;;;26.54;61.96;99196.91;2068080;28;19915;-51
2022/06/21 04:06:01;;;;;;;;;;;;;;;26.53;61.79;99194.63;2060877;28;19919;-47
2022/06/21 04:07:11;;;;;;;;;;;;;;;26.54;61.03;99191.34;2067513;28;19912;-50
2022/06/21 04:08:17;;;;;;;;;;;;;;;26.54;62.00;99185.03;2069547;28;19912;-50
2022/06/21 04:09:17;;;;;;;;;;;;;;;26.53;62.37;99181.50;2060912;28;19909;-52
2022/06/21 04:10:30;;;;;;;;;;;;;;;26.54;61.54;99166.38;2063759;28;20396;-51
2022/06/21 04:11:54;;;;;;;;;;;;;;;26.52;61.94;99171.63;2066293;28;20494;-52
2022/06/21 04:13:00;;;;;;;;;;;;;;;26.52;61.95;99168.84;2063631;28;19917;-51
2022/06/21 04:14:00;;;;;;;;;;;;;;;26.55;62.12;99175.44;2068566;28;19919;-51
2022/06/21 04:15:04;;;;;;;;;;;;;;;26.52;61.63;99166.09;2067302;28;19912;-52
2022/06/21 04:16:24;;;;;;;;;;;;;;;26.52;62.56;99159.75;2068910;28;19920;-51
2022/06/21 04:17:39;;;;;;;;;;;;;;;26.50;61.50;99168.56;2062389;28;20317;-51
2022/06/21 04:18:55;;;;;;;;;;;;;;;26.52;61.97;99157.75;2065248;28;20010;-51
2022/06/21 04:20:01;;;;;;;;;;;;;;;26.51;62.32;99153.44;2066320;28;19944;-49
2022/06/21 04:21:12;;;;;;;;;;;;;;;26.51;62.27;99147.88;2064241;28;19913;-49
2022/06/21 04:22:15;;;;;;;;;;;;;;;26.50;62.16;99149.13;2067266;28;19955;-49
2022/06/21 04:23:15;;;;;;;;;;;;;;;26.49;61.46;99156.69;2066541;28;20599;-51
2022/06/21 04:24:38;;;;;;;;;;;;;;;26.50;61.33;99146.34;2068322;28;19963;-51
2022/06/21 04:25:41;;;;;;;;;;;;;;;26.49;61.45;99140.03;2069015;28;19913;-52
2022/06/21 04:26:49;;;;;;;;;;;;;;;26.49;61.77;99133.72;2067480;28;19905;-51
2022/06/21 04:27:53;;;;;;;;;;;;;;;26.48;62.01;99132.97;2069577;28;19913;-52
2022/06/21 04:28:57;;;;;;;;;;;;;;;26.48;61.70;99149.63;2069108;28;19913;-49
2022/06/21 04:29:57;;;;;;;;;;;;;;;26.48;61.58;99135.00;2069677;28;19913;-51
2022/06/21 04:31:04;;;;;;;;;;;;;;;26.47;61.92;99134.22;2070214;28;20534;-51
2022/06/21 04:32:07;;;;;;;;;;;;;;;26.47;62.09;99130.69;2070009;28;19962;-51
2022/06/21 04:33:10;;;;;;;;;;;;;;;26.47;62.03;99131.44;2069996;28;20031;-49
2022/06/21 04:34:15;;;;;;;;;;;;;;;26.47;62.03;99131.44;2069678;28;19905;-50
2022/06/21 04:35:25;;;;;;;;;;;;;;;26.48;62.50;99137.78;2070651;28;20546;-49
2022/06/21 04:36:29;;;;;;;;;;;;;;;26.47;62.57;99139.78;2070051;28;19924;-51
2022/06/21 04:37:35;;;;;;;;;;;;;;;26.46;62.58;99134.69;2068211;28;20481;-52
2022/06/21 04:38:40;;;;;;;;;;;;;;;26.47;61.88;99139.00;2071403;28;20262;-52
2022/06/21 04:39:46;;;;;;;;;;;;;;;26.46;62.11;99134.69;2070130;28;20055;-48
2022/06/21 04:40:56;;;;;;;;;;;;;;;26.46;62.34;99135.47;2069448;28;20240;-52
2022/06/21 04:42:03;;;;;;;;;;;;;;;26.45;62.08;99142.25;2071386;28;20075;-49
2022/06/21 04:43:03;;;;;;;;;;;;;;;26.45;62.39;99142.25;2069944;28;20271;-52
2022/06/21 04:44:03;;;;;;;;;;;;;;;26.45;62.39;99133.16;2068985;28;19917;-52
2022/06/21 04:45:04;;;;;;;;;;;;;;;26.45;62.75;99142.25;2070260;28;19981;-51
2022/06/21 04:46:08;;;;;;;;;;;;;;;26.45;62.54;99147.06;2066595;28;19915;-51
2022/06/21 04:47:17;;;;;;;;;;;;;;;26.46;62.70;99151.38;2068941;28;20024;-52
2022/06/21 04:48:18;;;;;;;;;;;;;;;26.46;62.77;99146.56;2069225;28;19913;-51
2022/06/21 04:49:26;;;;;;;;;;;;;;;26.46;62.52;99151.38;2066462;28;19913;-51
2022/06/21 04:50:48;;;;;;;;;;;;;;;26.44;62.12;99146.28;2070382;28;20036;-49
2022/06/21 04:51:59;;;;;;;;;;;;;;;26.44;62.20;99145.53;2069691;28;20004;-52
2022/06/21 04:53:10;;;;;;;;;;;;;;;26.43;62.48;99149.56;2070260;28;20941;-50
2022/06/21 04:54:20;;;;;;;;;;;;;;;26.43;62.44;99149.56;2068669;28;20046;-51
2022/06/21 04:55:26;;;;;;;;;;;;;;;26.43;62.69;99149.56;2067782;28;20240;-51
2022/06/21 04:56:27;;;;;;;;;;;;;;;26.43;62.65;99152.34;2069839;28;20272;-51
2022/06/21 04:57:28;;;;;;;;;;;;;;;26.42;62.61;99151.56;2068754;28;19917;-50
2022/06/21 04:58:29;;;;;;;;;;;;;;;26.43;62.45;99152.34;2069310;28;20189;-52
2022/06/21 04:59:31;;;;;;;;;;;;;;;26.42;62.63;99150.81;2070793;28;19920;-50
2022/06/21 05:00:33;;;;;;;;;;;;;;;26.41;62.10;99161.16;2068813;28;20465;-51
2022/06/21 05:01:33;;;;;;;;;;;;;;;26.40;62.49;99156.06;2068778;28;19919;-52
2022/06/21 05:02:36;;;;;;;;;;;;;;;26.40;62.13;99167.19;2070285;28;19913;-52
2022/06/21 05:03:41;;;;;;;;;;;;;;;26.39;62.02;99163.63;2069219;28;20011;-52
2022/06/21 05:04:42;;;;;;;;;;;;;;;26.39;62.24;99162.88;2067146;28;20378;-50
2022/06/21 05:05:43;;;;;;;;;;;;;;;26.37;62.09;99157.06;2069738;28;19921;-50
2022/06/21 05:06:44;;;;;;;;;;;;;;;26.34;62.01;99155.22;2068210;28;20488;-49
2022/06/21 05:07:47;;;;;;;;;;;;;;;26.33;61.64;99160.03;2069051;28;20272;-51
2022/06/21 05:08:48;;;;;;;;;;;;;;;26.34;61.50;99158.78;2065069;28;19914;-51
2022/06/21 05:09:50;;;;;;;;;;;;;;;26.35;61.70;99151.22;2068863;28;19920;-48
2022/06/21 05:10:54;;;;;;;;;;;;;;;26.36;61.43;99152.75;2070601;28;19972;-51
2022/06/21 05:11:58;;;;;;;;;;;;;;;26.35;61.39;99151.22;2064494;28;20374;-51
2022/06/21 05:13:00;;;;;;;;;;;;;;;26.33;60.97;99153.72;2069051;28;19913;-51
2022/06/21 05:14:01;;;;;;;;;;;;;;;26.32;61.03;99146.66;2066851;28;19913;-50
2022/06/21 05:15:06;;;;;;;;;;;;;;;26.31;61.29;99145.13;2068346;28;19912;-50
2022/06/21 05:16:26;;;;;;;;;;;;;;;26.31;61.50;99139.56;2070402;28;19913;-51
2022/06/21 05:17:28;;;;;;;;;;;;;;;26.29;61.50;99158.69;2067848;28;19913;-52
2022/06/21 05:18:37;;;;;;;;;;;;;;;26.31;61.33;99159.00;2067809;28;19905;-52
2022/06/21 05:19:39;;;;;;;;;;;;;;;26.29;61.29;99159.47;2067075;28;20145;-51
2022/06/21 05:20:44;;;;;;;;;;;;;;;26.29;61.70;99164.25;2075599;28;20263;-51
2022/06/21 05:21:44;;;;;;;;;;;;;;;26.28;61.53;99163.50;2075478;28;19912;-51
2022/06/21 05:22:50;;;;;;;;;;;;;;;26.31;61.64;99151.44;2068179;28;20221;-51
2022/06/21 05:23:50;;;;;;;;;;;;;;;26.30;61.96;99154.69;2067741;28;20118;-50
2022/06/21 05:24:51;;;;;;;;;;;;;;;26.31;61.77;99156.97;2067967;28;20338;-50
2022/06/21 05:25:51;;;;;;;;;;;;;;;26.30;61.73;99163.00;2070525;28;19917;-51
2022/06/21 05:26:58;;;;;;;;;;;;;;;26.31;61.69;99156.97;2069589;28;19967;-49
2022/06/21 05:28:16;;;;;;;;;;;;;;;26.31;61.68;99162.53;2063196;28;20000;-50
2022/06/21 05:29:23;;;;;;;;;;;;;;;26.31;62.47;99159.75;2065040;28;20004;-51
2022/06/21 05:30:31;;;;;;;;;;;;;;;26.31;62.11;99153.44;2067490;28;20355;-47
2022/06/21 05:31:36;;;;;;;;;;;;;;;26.32;62.11;99168.84;2067490;28;19917;-49
2022/06/21 05:32:40;;;;;;;;;;;;;;;26.31;62.18;99172.88;2066639;28;20051;-50
2022/06/21 05:33:43;;;;;;;;;;;;;;;26.32;62.44;99163.31;2066229;28;20839;-51
2022/06/21 05:34:46;;;;;;;;;;;;;;;26.32;63.13;99174.41;2062004;28;20156;-49
2022/06/21 05:35:47;;;;;;;;;;;;;;;26.30;62.66;99172.09;2067795;28;20000;-50
2022/06/21 05:37:01;;;;;;;;;;;;;;;26.32;62.70;99174.41;2069227;28;19909;-51
2022/06/21 05:38:06;;;;;;;;;;;;;;;26.31;62.95;99176.41;2063830;28;19913;-50